Time;durP1;ratioP1;P1;durP2;ratioP2;P2;SDS_P1;SDS_P2;PMS_P1;PMS_P2;Temp;Humidity;BMP_temperature;BMP_pressure;BME280_temperature;BME280_humidity;BME280_pressure;Samples;Min_cycle;Max_cycle;Signal;HPM_P1;HPM_P2
2020/12/24 00:02:03;;;;;;;4.88;3.10;;;22.20;48.10;;;;;;5055556;28;20354;-48
2020/12/24 00:04:30;;;;;;;6.68;3.22;;;22.30;47.90;;;;;;5056088;28;20439;-48
2020/12/24 00:06:56;;;;;;;5.85;3.28;;;22.30;47.80;;;;;;5056183;28;20025;-48
2020/12/24 00:09:23;;;;;;;5.35;3.20;;;22.40;47.70;;;;;;5056190;28;20044;-48
2020/12/24 00:11:49;;;;;;;7.63;3.33;;;22.50;47.60;;;;;;5056336;28;20025;-48
2020/12/24 00:14:16;;;;;;;11.68;3.60;;;22.50;47.40;;;;;;5054187;28;20419;-48
2020/12/24 00:16:42;;;;;;;6.43;3.05;;;22.60;47.40;;;;;;5055890;28;20047;-48
2020/12/24 00:19:09;;;;;;;7.97;3.17;;;22.60;47.30;;;;;;5059389;28;20040;-48
2020/12/24 00:21:39;;;;;;;7.90;3.50;;;22.60;47.20;;;;;;5056777;28;20028;-48
2020/12/24 00:24:06;;;;;;;10.65;3.22;;;22.70;47.20;;;;;;5055857;28;20021;-48
2020/12/24 00:26:32;;;;;;;7.18;3.60;;;22.70;47.20;;;;;;5055732;28;20029;-48
2020/12/24 00:28:59;;;;;;;8.38;3.08;;;22.70;47.00;;;;;;5055614;28;20041;-48
2020/12/24 00:31:26;;;;;;;6.10;2.90;;;22.70;47.00;;;;;;5055685;28;20029;-48
2020/12/24 00:33:52;;;;;;;7.07;3.22;;;22.70;47.00;;;;;;5055509;28;20060;-48
2020/12/24 00:36:19;;;;;;;9.38;3.28;;;22.70;46.90;;;;;;5055662;28;20495;-48
2020/12/24 00:38:45;;;;;;;9.82;3.33;;;22.60;46.80;;;;;;5055499;28;20035;-48
2020/12/24 00:41:12;;;;;;;9.65;2.75;;;22.60;46.80;;;;;;5055581;28;20061;-47
2020/12/24 00:43:38;;;;;;;6.45;2.50;;;22.60;46.90;;;;;;5055273;28;20048;-47
2020/12/24 00:46:05;;;;;;;6.75;3.63;;;22.50;46.80;;;;;;5055435;28;20488;-48
2020/12/24 00:48:31;;;;;;;9.68;3.00;;;22.50;46.90;;;;;;5055167;28;20040;-48
2020/12/24 00:50:58;;;;;;;7.07;2.88;;;22.50;47.00;;;;;;5055236;28;20029;-47
2020/12/24 00:53:24;;;;;;;6.82;2.83;;;22.40;47.10;;;;;;5055284;28;20029;-48
2020/12/24 00:55:51;;;;;;;8.50;2.92;;;22.40;47.30;;;;;;5055486;28;20017;-48
2020/12/24 00:58:17;;;;;;;7.05;2.90;;;22.50;47.60;;;;;;5055092;28;20083;-47
2020/12/24 01:00:44;;;;;;;6.45;2.60;;;22.50;47.70;;;;;;5055153;28;20064;-48
2020/12/24 01:03:10;;;;;;;6.80;2.65;;;22.50;47.80;;;;;;5054865;28;20100;-48
2020/12/24 01:05:37;;;;;;;9.75;3.03;;;22.60;47.80;;;;;;5054802;28;20029;-48
2020/12/24 01:08:03;;;;;;;4.50;2.47;;;22.70;47.70;;;;;;5054773;28;20025;-48
2020/12/24 01:10:30;;;;;;;8.63;3.03;;;22.70;47.80;;;;;;5052663;28;20021;-48
2020/12/24 01:12:56;;;;;;;12.35;2.65;;;22.80;47.60;;;;;;5058616;28;20521;-48
2020/12/24 01:15:23;;;;;;;5.45;2.78;;;22.90;47.70;;;;;;5074902;28;20028;-48
2020/12/24 01:17:50;;;;;;;7.20;2.75;;;23.00;47.60;;;;;;5061039;28;20025;-48
2020/12/24 01:20:16;;;;;;;7.35;2.60;;;23.10;47.50;;;;;;5054508;28;20090;-48
2020/12/24 01:22:43;;;;;;;8.82;2.50;;;23.20;47.40;;;;;;5054691;28;20069;-48
2020/12/24 01:25:10;;;;;;;5.82;2.20;;;23.30;47.30;;;;;;5054491;28;20419;-48
2020/12/24 01:27:36;;;;;;;5.65;2.33;;;23.30;47.10;;;;;;5054619;28;20033;-48
2020/12/24 01:30:04;;;;;;;6.00;2.47;;;23.40;47.00;;;;;;5068149;28;20047;-48
2020/12/24 01:32:31;;;;;;;4.85;2.20;;;23.50;46.80;;;;;;5066643;28;20025;-49
2020/12/24 01:34:57;;;;;;;5.90;2.17;;;23.50;46.70;;;;;;5054519;28;20108;-49
2020/12/24 01:37:24;;;;;;;7.15;2.42;;;23.60;46.70;;;;;;5054344;28;20039;-48
2020/12/24 01:39:50;;;;;;;6.78;2.10;;;23.70;46.60;;;;;;5053602;28;20372;-48
2020/12/24 01:42:19;;;;;;;8.25;2.60;;;23.60;46.40;;;;;;5054689;28;20031;-48
2020/12/24 01:44:47;;;;;;;7.20;2.45;;;23.70;46.30;;;;;;5052988;28;20444;-48
2020/12/24 01:47:17;;;;;;;4.05;2.00;;;23.70;46.20;;;;;;5053646;28;20028;-48
2020/12/24 01:49:44;;;;;;;10.27;2.40;;;23.80;46.10;;;;;;5054271;28;20029;-48
2020/12/24 01:52:49;;;;;;;5.47;2.28;;;23.80;46.00;;;;;;5054268;28;20044;-48
2020/12/24 01:55:15;;;;;;;5.35;2.05;;;23.80;46.20;;;;;;5031901;28;20381;-48
2020/12/24 01:57:42;;;;;;;10.27;2.40;;;23.80;46.00;;;;;;5031953;28;20037;-48
2020/12/24 02:00:11;;;;;;;7.05;2.05;;;23.80;46.00;;;;;;5042502;28;20049;-48
2020/12/24 02:02:38;;;;;;;10.38;2.08;;;23.80;46.00;;;;;;5054103;28;20025;-48
2020/12/24 02:05:05;;;;;;;3.67;1.90;;;23.80;45.90;;;;;;5055038;28;20380;-48
2020/12/24 02:07:32;;;;;;;5.78;2.00;;;23.70;45.80;;;;;;5074054;28;20021;-48
2020/12/24 02:09:59;;;;;;;4.97;2.40;;;23.70;45.90;;;;;;5073940;28;20036;-48
2020/12/24 02:12:26;;;;;;;3.95;1.83;;;23.70;45.90;;;;;;5073963;28;20024;-48
2020/12/24 02:14:53;;;;;;;3.83;2.10;;;23.70;45.90;;;;;;5073858;28;20078;-48
2020/12/24 02:17:19;;;;;;;5.65;2.10;;;23.60;45.90;;;;;;5061113;28;20052;-48
2020/12/24 02:19:46;;;;;;;3.50;1.92;;;23.60;45.90;;;;;;5053504;28;20045;-48
2020/12/24 02:22:14;;;;;;;4.43;1.90;;;23.50;46.00;;;;;;5053527;28;20540;-48
2020/12/24 02:24:44;;;;;;;3.25;2.03;;;23.50;46.00;;;;;;5053752;28;20035;-48
2020/12/24 02:27:11;;;;;;;4.50;2.25;;;23.40;46.00;;;;;;5053785;28;20029;-48
2020/12/24 02:29:38;;;;;;;5.13;2.42;;;23.40;46.10;;;;;;5053777;28;20117;-47
2020/12/24 02:32:05;;;;;;;5.70;2.10;;;23.40;46.10;;;;;;5053333;28;20469;-47
2020/12/24 02:34:32;;;;;;;6.47;1.98;;;23.30;46.20;;;;;;5053391;28;20029;-48
2020/12/24 02:36:58;;;;;;;6.10;1.90;;;23.30;46.30;;;;;;5053656;28;20021;-48
2020/12/24 02:39:25;;;;;;;4.38;2.10;;;23.20;46.30;;;;;;5053454;28;20078;-48
2020/12/24 02:41:52;;;;;;;6.47;1.90;;;23.20;46.30;;;;;;5053555;28;20232;-48
2020/12/24 02:44:18;;;;;;;4.85;1.70;;;23.10;46.30;;;;;;5053292;28;20032;-48
2020/12/24 02:46:45;;;;;;;3.20;1.90;;;23.10;46.40;;;;;;5053352;28;20021;-47
2020/12/24 02:49:11;;;;;;;5.70;1.98;;;23.00;46.40;;;;;;5053555;28;20040;-48
2020/12/24 02:51:38;;;;;;;12.00;3.35;;;23.00;46.50;;;;;;5056797;28;20064;-48
2020/12/24 02:54:04;;;;;;;9.50;2.40;;;22.90;46.50;;;;;;5057074;28;20560;-48
2020/12/24 02:56:31;;;;;;;5.38;2.10;;;22.80;46.50;;;;;;5057689;28;20104;-48
2020/12/24 02:58:57;;;;;;;8.70;2.45;;;22.80;46.70;;;;;;5057458;28;20033;-48
2020/12/24 03:01:24;;;;;;;6.70;2.50;;;22.70;46.70;;;;;;5055667;28;20113;-48
2020/12/24 03:03:51;;;;;;;5.20;2.10;;;22.70;46.80;;;;;;5056278;28;20128;-48
2020/12/24 03:06:17;;;;;;;3.45;2.15;;;22.70;46.90;;;;;;5058309;28;20502;-48
2020/12/24 03:08:44;;;;;;;9.95;2.85;;;22.60;46.90;;;;;;5055798;28;20025;-48
2020/12/24 03:11:10;;;;;;;8.32;2.63;;;22.60;47.10;;;;;;5057240;28;20025;-48
2020/12/24 03:13:37;;;;;;;5.93;2.30;;;22.50;47.10;;;;;;5055578;28;20033;-47
2020/12/24 03:16:03;;;;;;;5.93;2.40;;;22.40;47.10;;;;;;5056955;28;20488;-48
2020/12/24 03:18:30;;;;;;;5.50;2.10;;;22.40;47.20;;;;;;5056822;28;20115;-48
2020/12/24 03:20:56;;;;;;;6.03;2.25;;;22.30;47.30;;;;;;5056730;28;20094;-48
2020/12/24 03:23:23;;;;;;;7.65;2.30;;;22.30;47.40;;;;;;5057302;28;20021;-48
2020/12/24 03:25:49;;;;;;;5.28;2.45;;;22.30;47.40;;;;;;5055662;28;20017;-47
2020/12/24 03:28:16;;;;;;;6.28;2.30;;;22.30;47.50;;;;;;5055262;28;20464;-49
2020/12/24 03:30:42;;;;;;;4.18;2.25;;;22.20;47.40;;;;;;5056619;28;20025;-48
2020/12/24 03:33:09;;;;;;;5.80;2.15;;;22.20;47.50;;;;;;5055375;28;20108;-47
2020/12/24 03:35:35;;;;;;;3.65;2.10;;;22.10;47.50;;;;;;5056555;28;20098;-48
2020/12/24 03:38:02;;;;;;;4.43;2.25;;;22.10;47.60;;;;;;5055683;28;20021;-47
2020/12/24 03:40:28;;;;;;;7.55;2.25;;;22.10;47.60;;;;;;5055469;28;20037;-47
2020/12/24 03:42:55;;;;;;;4.35;2.35;;;22.10;47.70;;;;;;5055178;28;20064;-47
2020/12/24 03:45:21;;;;;;;3.40;2.33;;;22.10;47.80;;;;;;5055615;28;20025;-45
2020/12/24 03:47:48;;;;;;;3.85;2.08;;;22.00;47.70;;;;;;5054047;28;20025;-48
2020/12/24 03:50:15;;;;;;;5.80;1.92;;;22.00;47.70;;;;;;5055213;28;20040;-48
2020/12/24 03:52:41;;;;;;;3.10;2.13;;;22.00;47.80;;;;;;5055881;28;20028;-48
2020/12/24 03:55:08;;;;;;;4.63;1.92;;;22.00;47.80;;;;;;5056459;28;20139;-48
2020/12/24 03:57:34;;;;;;;3.22;1.80;;;22.00;47.80;;;;;;5055657;28;20037;-48
2020/12/24 04:00:00;;;;;;;7.20;2.08;;;22.00;47.80;;;;;;5056497;28;20076;-47
2020/12/24 04:02:27;;;;;;;4.90;2.00;;;22.00;47.90;;;;;;5055863;28;20025;-48
2020/12/24 04:04:53;;;;;;;2.80;2.03;;;22.00;47.90;;;;;;5056307;28;20350;-48
2020/12/24 04:07:20;;;;;;;3.55;1.95;;;22.00;47.90;;;;;;5036246;28;20026;-48
2020/12/24 04:09:46;;;;;;;5.60;1.85;;;22.00;47.90;;;;;;5054973;28;20028;-48
2020/12/24 04:12:13;;;;;;;5.07;1.83;;;21.90;47.90;;;;;;5071400;28;20115;-48
2020/12/24 04:14:40;;;;;;;4.43;2.10;;;22.00;48.00;;;;;;5072120;28;20052;-48
2020/12/24 04:17:06;;;;;;;2.92;1.83;;;22.00;48.00;;;;;;5055292;28;20111;-48
2020/12/24 04:19:33;;;;;;;3.50;1.90;;;21.90;47.90;;;;;;5055974;28;20108;-48
2020/12/24 04:21:59;;;;;;;3.80;1.90;;;21.90;48.00;;;;;;5055680;28;20025;-48
2020/12/24 04:24:26;;;;;;;4.03;1.80;;;21.90;48.10;;;;;;5055925;28;20029;-48
2020/12/24 04:26:55;;;;;;;3.45;2.08;;;21.90;48.10;;;;;;5055868;28;20436;-48
2020/12/24 04:29:22;;;;;;;3.35;1.67;;;21.90;48.10;;;;;;5055351;28;20052;-48
2020/12/24 04:31:49;;;;;;;3.58;1.85;;;21.90;48.10;;;;;;5055394;28;20025;-47
2020/12/24 04:34:15;;;;;;;2.15;1.50;;;21.90;48.10;;;;;;5055502;28;20029;-48
2020/12/24 04:36:42;;;;;;;3.63;1.50;;;21.90;48.10;;;;;;5055954;28;20035;-48
2020/12/24 04:39:08;;;;;;;4.18;1.60;;;21.90;48.10;;;;;;5055160;28;20040;-48
2020/12/24 04:41:35;;;;;;;6.47;1.90;;;22.00;48.20;;;;;;5056405;28;20119;-48
2020/12/24 04:44:02;;;;;;;6.25;1.80;;;22.00;48.10;;;;;;5063234;28;20017;-47
2020/12/24 04:46:29;;;;;;;2.83;1.40;;;22.00;48.10;;;;;;5053621;28;20039;-47
2020/12/24 04:49:00;;;;;;;4.35;1.58;;;22.10;48.10;;;;;;5063138;28;20024;-47
2020/12/24 04:51:27;;;;;;;2.78;1.48;;;22.10;48.00;;;;;;5066331;28;20017;-48
2020/12/24 04:53:54;;;;;;;4.47;1.80;;;22.10;47.90;;;;;;5055335;28;20411;-48
2020/12/24 04:56:20;;;;;;;3.80;1.67;;;22.10;47.90;;;;;;5054957;28;20535;-48
2020/12/24 04:58:47;;;;;;;5.00;1.88;;;22.10;47.80;;;;;;5055177;28;20491;-48
2020/12/24 05:01:19;;;;;;;3.70;2.00;;;22.20;47.80;;;;;;5055756;28;20391;-48
2020/12/24 05:03:46;;;;;;;;;;;22.20;47.70;;;;;;5055606;28;20030;-48
2020/12/24 05:06:18;;;;;;;2.95;1.33;;;22.20;47.90;;;;;;5065959;28;19904;-48
2020/12/24 05:08:58;;;;;;;5.13;1.58;;;22.20;47.70;;;;;;5075295;28;20033;-48
2020/12/24 05:11:33;;;;;;;3.10;1.50;;;22.20;47.70;;;;;;5074973;28;20028;-48
2020/12/24 05:14:30;;;;;;;2.70;1.63;;;22.20;47.70;;;;;;5073858;28;20033;-48
2020/12/24 05:16:58;;;;;;;4.47;1.67;;;22.20;47.80;;;;;;5062414;28;20050;-48
2020/12/24 05:19:26;;;;;;;7.90;2.00;;;22.10;47.60;;;;;;5074737;28;20032;-48
2020/12/24 05:21:53;;;;;;;8.70;1.80;;;22.10;47.50;;;;;;5070539;28;20491;-48
2020/12/24 05:24:28;;;;;;;6.95;1.83;;;22.10;47.60;;;;;;5054445;28;20079;-48
2020/12/24 05:27:08;;;;;;;7.45;1.60;;;22.10;47.60;;;;;;5054956;28;20021;-48
2020/12/24 05:29:42;;;;;;;6.90;1.48;;;22.00;47.60;;;;;;5054309;28;20194;-48
2020/12/24 05:32:09;;;;;;;2.92;1.60;;;22.00;47.60;;;;;;5054953;28;20029;-47
2020/12/24 05:34:37;;;;;;;5.63;1.83;;;22.00;47.70;;;;;;5054443;28;20025;-48
2020/12/24 05:37:14;;;;;;;3.80;1.30;;;22.00;47.70;;;;;;5054398;28;20017;-47
2020/12/24 05:39:43;;;;;;;5.47;1.60;;;21.90;47.70;;;;;;5054140;28;20040;-47
2020/12/24 05:42:10;;;;;;;7.30;1.60;;;21.90;47.80;;;;;;5054444;28;20032;-48
2020/12/24 05:44:37;;;;;;;5.20;1.85;;;21.90;47.80;;;;;;5053875;28;20117;-48
2020/12/24 05:47:04;;;;;;;3.13;1.27;;;21.90;47.80;;;;;;5034461;28;20250;-49
2020/12/24 05:49:32;;;;;;;3.25;1.30;;;21.90;47.80;;;;;;5046425;28;20036;-48
2020/12/24 05:52:05;;;;;;;2.00;1.40;;;21.80;47.80;;;;;;5054038;28;20491;-48
2020/12/24 05:54:33;;;;;;;3.78;1.50;;;21.80;47.80;;;;;;5054204;28;20114;-48
2020/12/24 05:57:02;;;;;;;6.25;1.70;;;21.80;47.90;;;;;;5053840;28;20468;-48
2020/12/24 05:59:29;;;;;;;7.28;1.50;;;21.80;47.90;;;;;;5054075;28;20079;-48
2020/12/24 06:02:20;;;;;;;4.43;1.40;;;21.80;47.90;;;;;;5054074;28;20028;-48
2020/12/24 06:04:49;;;;;;;6.13;1.48;;;21.80;48.00;;;;;;5053827;28;20044;-48
2020/12/24 06:07:18;;;;;;;3.10;1.45;;;21.70;48.00;;;;;;5073471;28;20112;-49
2020/12/24 06:09:46;;;;;;;5.32;1.33;;;21.70;48.00;;;;;;5062589;28;20079;-48
2020/12/24 06:12:27;;;;;;;3.20;1.50;;;21.70;48.10;;;;;;5053925;28;20047;-48
2020/12/24 06:15:03;;;;;;;3.25;1.50;;;21.60;48.10;;;;;;5053987;28;20025;-48
2020/12/24 06:17:31;;;;;;;3.72;1.45;;;21.60;48.10;;;;;;5053848;28;20524;-47
2020/12/24 06:19:58;;;;;;;2.88;1.65;;;21.60;48.10;;;;;;5054013;28;20469;-47
2020/12/24 06:22:26;;;;;;;4.57;1.35;;;21.50;48.10;;;;;;5054370;28;20044;-47
2020/12/24 06:24:59;;;;;;;4.85;1.45;;;21.50;48.20;;;;;;5053413;28;20035;-47
2020/12/24 06:27:42;;;;;;;4.18;1.15;;;21.50;48.20;;;;;;5054389;28;20018;-47
2020/12/24 06:30:19;;;;;;;4.15;1.50;;;21.50;48.30;;;;;;5053236;28;20059;-47
2020/12/24 06:32:53;;;;;;;4.03;1.23;;;21.40;48.20;;;;;;5053750;28;20075;-47
2020/12/24 06:35:35;;;;;;;2.80;1.30;;;21.40;48.20;;;;;;5053437;28;20470;-47
2020/12/24 06:38:06;;;;;;;3.38;1.20;;;21.40;48.30;;;;;;5053690;28;20112;-47
2020/12/24 06:40:35;;;;;;;3.42;1.40;;;21.30;48.20;;;;;;5053715;28;20021;-47
2020/12/24 06:43:02;;;;;;;3.05;1.33;;;21.30;48.20;;;;;;5053944;28;20349;-47
2020/12/24 06:45:29;;;;;;;2.20;1.25;;;21.30;48.30;;;;;;5053525;28;20061;-48
2020/12/24 06:48:23;;;;;;;2.97;1.20;;;21.20;48.30;;;;;;5054394;28;20033;-47
2020/12/24 06:51:02;;;;;;;8.75;1.60;;;21.20;48.30;;;;;;5053688;28;20461;-48
2020/12/24 06:53:30;;;;;;;2.60;1.48;;;21.10;48.30;;;;;;5053529;28;20029;-48
2020/12/24 06:56:24;;;;;;;2.92;1.50;;;21.00;48.30;;;;;;5054164;28;20021;-47
2020/12/24 06:58:57;;;;;;;5.10;1.58;;;21.00;48.20;;;;;;5053382;28;20032;-47
2020/12/24 07:01:30;;;;;;;2.55;1.38;;;20.90;48.20;;;;;;5053757;28;20037;-48
2020/12/24 07:04:05;;;;;;;9.48;1.60;;;20.90;48.40;;;;;;5052269;28;20021;-47
